Elliottsburg, Pennsylvania
Current Conditions -  °F | °C
As of 5:56 AM on Friday 21 Nov 2014 (Local Time) from KCXY Reporting Station
Few Clouds Few Clouds  
Wind Chill: 17°   Ceiling: Unl
Heat Index: 24°   Visibility: 10mi
Dew Point:   Wind: 6mph
Humidity: 53%   Direction: 280°W
Pressure: 30.26"   Gusts: NA
Location:  40.39°N, 77.29°W
Report Text: KCXY 211056Z AUTO 28005KT 10SM FEW055 M04/M13 A3026 RMK AO2 SLP252 T10441128
Loading
Personal Weather Stations






























Interactive Weather Map New forecast layout! Learn more

10-Day Weather Forecast

Advertisements
Track Severe Weather on mobile